Hinojo, Argentina
Current Conditions -  °F | °C
As of 8:00 AM on Thursday 18 Dec 2014 (Local Time) from SAZM Reporting Station
Clear Clear  
Wind Chill: 64°   Ceiling: Unl
Heat Index: 64°   Visibility: 6mi
Dew Point: 43°   Wind: 10mph
Humidity: 45%   Direction: 320°NW
Pressure: 29.88"   Gusts: NA
Location:  36.87°S, 60.17°W
Report Text: SAZM 181100Z 32009KT CAVOK 18/06 Q1012
Loading
Personal Weather Stations






























Interactive Weather Map New forecast layout! Learn more

10-Day Weather Forecast

Advertisements
Track Severe Weather on mobile